sensor_id;sensor_type;location;lat;lon;timestamp;P1;durP1;ratioP1;P2;durP2;ratioP2
14377;SDS011;7272;53.668;9.578;2023-04-24T00:00:57;9.47;;;8.67;;
14377;SDS011;7272;53.668;9.578;2023-04-24T00:03:59;9.83;;;9.00;;
14377;SDS011;7272;53.668;9.578;2023-04-24T00:07:00;8.60;;;8.00;;
14377;SDS011;7272;53.668;9.578;2023-04-24T00:10:01;11.63;;;10.82;;
14377;SDS011;7272;53.668;9.578;2023-04-24T00:13:03;8.33;;;7.63;;
14377;SDS011;7272;53.668;9.578;2023-04-24T00:16:05;8.53;;;7.90;;
14377;SDS011;7272;53.668;9.578;2023-04-24T00:19:06;8.37;;;7.83;;
14377;SDS011;7272;53.668;9.578;2023-04-24T00:22:08;9.07;;;8.43;;
14377;SDS011;7272;53.668;9.578;2023-04-24T00:25:09;9.03;;;8.43;;
14377;SDS011;7272;53.668;9.578;2023-04-24T00:28:11;8.80;;;8.10;;
14377;SDS011;7272;53.668;9.578;2023-04-24T00:31:12;10.02;;;9.23;;
14377;SDS011;7272;53.668;9.578;2023-04-24T00:34:13;8.77;;;8.07;;
14377;SDS011;7272;53.668;9.578;2023-04-24T00:37:15;10.77;;;9.97;;
14377;SDS011;7272;53.668;9.578;2023-04-24T00:40:18;10.20;;;9.50;;
14377;SDS011;7272;53.668;9.578;2023-04-24T00:43:20;10.83;;;9.93;;
14377;SDS011;7272;53.668;9.578;2023-04-24T00:46:22;9.43;;;8.73;;
14377;SDS011;7272;53.668;9.578;2023-04-24T00:49:23;9.17;;;8.47;;
14377;SDS011;7272;53.668;9.578;2023-04-24T00:52:24;9.70;;;9.00;;
14377;SDS011;7272;53.668;9.578;2023-04-24T00:55:26;7.97;;;7.37;;
14377;SDS011;7272;53.668;9.578;2023-04-24T00:58:28;8.27;;;7.60;;
14377;SDS011;7272;53.668;9.578;2023-04-24T01:01:31;8.03;;;7.50;;
14377;SDS011;7272;53.668;9.578;2023-04-24T01:04:32;9.30;;;8.70;;
14377;SDS011;7272;53.668;9.578;2023-04-24T01:07:34;7.70;;;7.00;;
14377;SDS011;7272;53.668;9.578;2023-04-24T01:10:36;8.57;;;7.77;;
14377;SDS011;7272;53.668;9.578;2023-04-24T01:13:39;7.97;;;7.37;;
14377;SDS011;7272;53.668;9.578;2023-04-24T01:16:43;7.23;;;6.73;;
14377;SDS011;7272;53.668;9.578;2023-04-24T01:19:45;8.00;;;7.50;;
14377;SDS011;7272;53.668;9.578;2023-04-24T01:22:47;8.37;;;7.70;;
14377;SDS011;7272;53.668;9.578;2023-04-24T01:25:49;7.73;;;7.23;;
14377;SDS011;7272;53.668;9.578;2023-04-24T01:28:52;8.83;;;8.03;;
14377;SDS011;7272;53.668;9.578;2023-04-24T01:31:54;9.70;;;9.02;;
14377;SDS011;7272;53.668;9.578;2023-04-24T01:34:56;9.13;;;8.43;;
14377;SDS011;7272;53.668;9.578;2023-04-24T01:37:58;8.20;;;7.57;;
14377;SDS011;7272;53.668;9.578;2023-04-24T01:40:59;7.77;;;7.27;;
14377;SDS011;7272;53.668;9.578;2023-04-24T01:44:01;8.40;;;7.80;;
14377;SDS011;7272;53.668;9.578;2023-04-24T01:47:03;8.13;;;7.53;;
14377;SDS011;7272;53.668;9.578;2023-04-24T01:50:05;6.70;;;6.23;;
14377;SDS011;7272;53.668;9.578;2023-04-24T01:53:07;7.83;;;7.23;;
14377;SDS011;7272;53.668;9.578;2023-04-24T01:56:10;7.70;;;7.20;;
14377;SDS011;7272;53.668;9.578;2023-04-24T01:59:12;7.60;;;7.10;;
14377;SDS011;7272;53.668;9.578;2023-04-24T02:02:13;7.57;;;6.97;;
14377;SDS011;7272;53.668;9.578;2023-04-24T02:05:14;6.47;;;6.07;;
14377;SDS011;7272;53.668;9.578;2023-04-24T02:08:16;5.90;;;5.57;;
14377;SDS011;7272;53.668;9.578;2023-04-24T02:11:17;6.53;;;6.03;;
14377;SDS011;7272;53.668;9.578;2023-04-24T02:14:19;5.87;;;5.47;;
14377;SDS011;7272;53.668;9.578;2023-04-24T02:17:20;5.93;;;5.53;;
14377;SDS011;7272;53.668;9.578;2023-04-24T02:20:22;5.60;;;5.20;;
14377;SDS011;7272;53.668;9.578;2023-04-24T02:23:24;5.37;;;4.97;;
14377;SDS011;7272;53.668;9.578;2023-04-24T02:26:25;4.70;;;4.40;;
14377;SDS011;7272;53.668;9.578;2023-04-24T02:29:27;4.93;;;4.63;;
14377;SDS011;7272;53.668;9.578;2023-04-24T02:32:28;5.32;;;4.95;;
14377;SDS011;7272;53.668;9.578;2023-04-24T02:35:31;5.10;;;4.70;;
14377;SDS011;7272;53.668;9.578;2023-04-24T02:38:33;5.00;;;4.70;;
14377;SDS011;7272;53.668;9.578;2023-04-24T02:41:34;4.50;;;4.20;;
14377;SDS011;7272;53.668;9.578;2023-04-24T02:44:35;5.33;;;4.93;;
14377;SDS011;7272;53.668;9.578;2023-04-24T02:47:36;4.63;;;4.23;;
14377;SDS011;7272;53.668;9.578;2023-04-24T02:50:38;4.50;;;4.20;;
14377;SDS011;7272;53.668;9.578;2023-04-24T02:53:40;4.13;;;3.83;;
14377;SDS011;7272;53.668;9.578;2023-04-24T02:56:41;4.47;;;4.17;;
14377;SDS011;7272;53.668;9.578;2023-04-24T02:59:43;4.80;;;4.20;;
14377;SDS011;7272;53.668;9.578;2023-04-24T03:02:44;4.90;;;4.60;;
14377;SDS011;7272;53.668;9.578;2023-04-24T03:05:45;4.53;;;4.20;;
14377;SDS011;7272;53.668;9.578;2023-04-24T03:08:48;3.90;;;3.70;;
14377;SDS011;7272;53.668;9.578;2023-04-24T03:11:49;3.47;;;3.27;;
14377;SDS011;7272;53.668;9.578;2023-04-24T03:14:50;3.40;;;3.20;;
14377;SDS011;7272;53.668;9.578;2023-04-24T03:17:53;3.40;;;3.20;;
14377;SDS011;7272;53.668;9.578;2023-04-24T03:20:55;3.20;;;3.00;;
14377;SDS011;7272;53.668;9.578;2023-04-24T03:23:57;3.50;;;3.20;;
14377;SDS011;7272;53.668;9.578;2023-04-24T03:26:58;3.40;;;3.20;;
14377;SDS011;7272;53.668;9.578;2023-04-24T03:30:32;3.60;;;3.40;;
14377;SDS011;7272;53.668;9.578;2023-04-24T03:33:35;3.30;;;3.10;;
14377;SDS011;7272;53.668;9.578;2023-04-24T03:36:36;3.00;;;2.90;;
14377;SDS011;7272;53.668;9.578;2023-04-24T03:39:41;2.97;;;2.77;;
14377;SDS011;7272;53.668;9.578;2023-04-24T03:42:42;3.07;;;2.87;;
14377;SDS011;7272;53.668;9.578;2023-04-24T03:45:44;3.40;;;3.20;;
14377;SDS011;7272;53.668;9.578;2023-04-24T03:48:46;3.13;;;2.93;;
14377;SDS011;7272;53.668;9.578;2023-04-24T03:51:50;3.23;;;3.03;;
14377;SDS011;7272;53.668;9.578;2023-04-24T03:54:57;3.17;;;2.97;;
14377;SDS011;7272;53.668;9.578;2023-04-24T03:57:59;3.20;;;3.00;;
14377;SDS011;7272;53.668;9.578;2023-04-24T04:01:01;2.87;;;2.77;;
14377;SDS011;7272;53.668;9.578;2023-04-24T04:04:20;3.73;;;3.53;;
14377;SDS011;7272;53.668;9.578;2023-04-24T04:07:21;3.80;;;3.60;;
14377;SDS011;7272;53.668;9.578;2023-04-24T04:10:24;3.30;;;3.10;;
14377;SDS011;7272;53.668;9.578;2023-04-24T04:13:25;3.70;;;3.50;;
14377;SDS011;7272;53.668;9.578;2023-04-24T04:16:26;3.30;;;3.10;;
14377;SDS011;7272;53.668;9.578;2023-04-24T04:19:34;3.30;;;3.10;;
14377;SDS011;7272;53.668;9.578;2023-04-24T04:22:35;4.03;;;3.63;;
14377;SDS011;7272;53.668;9.578;2023-04-24T04:25:39;3.93;;;3.63;;
14377;SDS011;7272;53.668;9.578;2023-04-24T04:28:40;3.40;;;3.20;;
14377;SDS011;7272;53.668;9.578;2023-04-24T04:31:41;3.70;;;3.50;;
14377;SDS011;7272;53.668;9.578;2023-04-24T04:34:47;3.30;;;3.10;;
14377;SDS011;7272;53.668;9.578;2023-04-24T04:37:50;4.00;;;3.70;;
14377;SDS011;7272;53.668;9.578;2023-04-24T04:41:31;3.70;;;3.50;;
14377;SDS011;7272;53.668;9.578;2023-04-24T04:44:35;3.43;;;3.23;;
14377;SDS011;7272;53.668;9.578;2023-04-24T04:47:39;3.30;;;3.10;;
14377;SDS011;7272;53.668;9.578;2023-04-24T04:50:42;3.10;;;2.80;;
14377;SDS011;7272;53.668;9.578;2023-04-24T04:53:44;3.40;;;3.20;;
14377;SDS011;7272;53.668;9.578;2023-04-24T04:56:46;3.20;;;2.90;;
14377;SDS011;7272;53.668;9.578;2023-04-24T04:59:47;3.07;;;2.87;;
14377;SDS011;7272;53.668;9.578;2023-04-24T05:02:58;3.03;;;2.83;;
14377;SDS011;7272;53.668;9.578;2023-04-24T05:06:00;2.70;;;2.60;;
14377;SDS011;7272;53.668;9.578;2023-04-24T05:09:03;3.20;;;3.00;;
14377;SDS011;7272;53.668;9.578;2023-04-24T05:12:15;3.00;;;2.80;;
14377;SDS011;7272;53.668;9.578;2023-04-24T05:15:24;3.28;;;3.00;;
14377;SDS011;7272;53.668;9.578;2023-04-24T05:18:25;2.63;;;2.43;;
14377;SDS011;7272;53.668;9.578;2023-04-24T05:21:27;2.40;;;2.30;;
14377;SDS011;7272;53.668;9.578;2023-04-24T05:24:29;2.27;;;2.17;;
14377;SDS011;7272;53.668;9.578;2023-04-24T05:28:03;2.33;;;2.13;;
14377;SDS011;7272;53.668;9.578;2023-04-24T05:31:07;2.30;;;2.20;;
14377;SDS011;7272;53.668;9.578;2023-04-24T05:34:08;2.20;;;2.07;;
14377;SDS011;7272;53.668;9.578;2023-04-24T05:37:14;3.17;;;2.43;;
14377;SDS011;7272;53.668;9.578;2023-04-24T05:40:15;2.40;;;2.20;;
14377;SDS011;7272;53.668;9.578;2023-04-24T05:43:17;2.13;;;2.03;;
14377;SDS011;7272;53.668;9.578;2023-04-24T05:46:18;2.20;;;2.10;;
14377;SDS011;7272;53.668;9.578;2023-04-24T05:49:20;2.20;;;2.10;;
14377;SDS011;7272;53.668;9.578;2023-04-24T05:52:21;1.90;;;1.80;;
14377;SDS011;7272;53.668;9.578;2023-04-24T05:55:23;2.00;;;1.90;;
14377;SDS011;7272;53.668;9.578;2023-04-24T05:58:26;1.80;;;1.70;;
14377;SDS011;7272;53.668;9.578;2023-04-24T06:01:28;1.80;;;1.70;;
14377;SDS011;7272;53.668;9.578;2023-04-24T06:04:39;2.00;;;1.90;;
14377;SDS011;7272;53.668;9.578;2023-04-24T06:07:41;2.43;;;2.10;;
14377;SDS011;7272;53.668;9.578;2023-04-24T06:10:43;2.27;;;2.17;;
14377;SDS011;7272;53.668;9.578;2023-04-24T06:13:46;2.00;;;1.90;;
14377;SDS011;7272;53.668;9.578;2023-04-24T06:17:05;2.00;;;1.90;;
14377;SDS011;7272;53.668;9.578;2023-04-24T06:20:11;2.42;;;2.33;;
14377;SDS011;7272;53.668;9.578;2023-04-24T06:23:12;2.30;;;2.10;;
14377;SDS011;7272;53.668;9.578;2023-04-24T06:26:14;2.17;;;2.07;;
14377;SDS011;7272;53.668;9.578;2023-04-24T06:29:16;2.40;;;2.10;;
14377;SDS011;7272;53.668;9.578;2023-04-24T06:32:17;2.30;;;2.20;;
14377;SDS011;7272;53.668;9.578;2023-04-24T06:35:18;2.60;;;2.40;;
14377;SDS011;7272;53.668;9.578;2023-04-24T06:38:19;2.40;;;2.20;;
14377;SDS011;7272;53.668;9.578;2023-04-24T06:41:21;2.70;;;2.50;;
14377;SDS011;7272;53.668;9.578;2023-04-24T06:44:23;2.50;;;2.30;;
14377;SDS011;7272;53.668;9.578;2023-04-24T06:47:24;2.80;;;2.60;;
14377;SDS011;7272;53.668;9.578;2023-04-24T06:50:25;2.60;;;2.40;;
14377;SDS011;7272;53.668;9.578;2023-04-24T06:53:26;2.73;;;2.53;;
14377;SDS011;7272;53.668;9.578;2023-04-24T06:56:28;2.83;;;2.63;;
14377;SDS011;7272;53.668;9.578;2023-04-24T06:59:30;2.90;;;2.70;;
14377;SDS011;7272;53.668;9.578;2023-04-24T07:02:31;3.00;;;2.80;;
14377;SDS011;7272;53.668;9.578;2023-04-24T07:05:32;2.80;;;2.60;;
14377;SDS011;7272;53.668;9.578;2023-04-24T07:08:35;3.00;;;2.80;;
14377;SDS011;7272;53.668;9.578;2023-04-24T07:11:36;3.17;;;2.97;;
14377;SDS011;7272;53.668;9.578;2023-04-24T07:14:40;3.53;;;3.00;;
14377;SDS011;7272;53.668;9.578;2023-04-24T07:17:41;3.20;;;2.90;;
14377;SDS011;7272;53.668;9.578;2023-04-24T07:20:44;2.90;;;2.70;;
14377;SDS011;7272;53.668;9.578;2023-04-24T07:23:45;3.47;;;3.27;;
14377;SDS011;7272;53.668;9.578;2023-04-24T07:26:47;3.27;;;3.07;;
14377;SDS011;7272;53.668;9.578;2023-04-24T07:29:49;3.40;;;3.20;;
14377;SDS011;7272;53.668;9.578;2023-04-24T07:32:50;3.47;;;3.28;;
14377;SDS011;7272;53.668;9.578;2023-04-24T07:35:52;3.10;;;2.90;;
14377;SDS011;7272;53.668;9.578;2023-04-24T07:38:53;3.40;;;3.20;;
14377;SDS011;7272;53.668;9.578;2023-04-24T07:41:55;3.33;;;3.13;;
14377;SDS011;7272;53.668;9.578;2023-04-24T07:44:59;3.60;;;3.40;;
14377;SDS011;7272;53.668;9.578;2023-04-24T07:48:00;3.57;;;3.37;;
14377;SDS011;7272;53.668;9.578;2023-04-24T07:51:02;3.87;;;3.57;;
14377;SDS011;7272;53.668;9.578;2023-04-24T07:54:03;3.90;;;3.60;;
14377;SDS011;7272;53.668;9.578;2023-04-24T07:57:06;3.63;;;3.33;;
14377;SDS011;7272;53.668;9.578;2023-04-24T08:00:09;4.47;;;4.10;;
14377;SDS011;7272;53.668;9.578;2023-04-24T08:03:14;4.28;;;3.97;;
14377;SDS011;7272;53.668;9.578;2023-04-24T08:06:18;3.80;;;3.60;;
14377;SDS011;7272;53.668;9.578;2023-04-24T08:09:19;3.87;;;3.60;;
14377;SDS011;7272;53.668;9.578;2023-04-24T08:12:20;4.30;;;4.00;;
14377;SDS011;7272;53.668;9.578;2023-04-24T08:15:22;3.97;;;3.63;;
14377;SDS011;7272;53.668;9.578;2023-04-24T08:18:23;4.63;;;4.23;;
14377;SDS011;7272;53.668;9.578;2023-04-24T08:21:25;4.37;;;4.07;;
14377;SDS011;7272;53.668;9.578;2023-04-24T08:24:27;4.30;;;4.00;;
14377;SDS011;7272;53.668;9.578;2023-04-24T08:27:28;4.50;;;4.20;;
14377;SDS011;7272;53.668;9.578;2023-04-24T08:30:30;4.80;;;4.50;;
14377;SDS011;7272;53.668;9.578;2023-04-24T08:33:32;4.93;;;4.53;;
14377;SDS011;7272;53.668;9.578;2023-04-24T08:36:34;5.00;;;4.70;;
14377;SDS011;7272;53.668;9.578;2023-04-24T08:39:36;5.05;;;4.65;;
14377;SDS011;7272;53.668;9.578;2023-04-24T08:42:37;4.50;;;4.13;;
14377;SDS011;7272;53.668;9.578;2023-04-24T08:45:40;5.43;;;5.00;;
14377;SDS011;7272;53.668;9.578;2023-04-24T08:48:41;5.93;;;5.43;;
14377;SDS011;7272;53.668;9.578;2023-04-24T08:51:43;5.67;;;5.27;;
14377;SDS011;7272;53.668;9.578;2023-04-24T08:54:45;6.17;;;5.60;;
14377;SDS011;7272;53.668;9.578;2023-04-24T08:57:49;7.17;;;6.67;;
14377;SDS011;7272;53.668;9.578;2023-04-24T09:00:52;6.97;;;6.47;;
14377;SDS011;7272;53.668;9.578;2023-04-24T09:03:55;7.00;;;6.50;;
14377;SDS011;7272;53.668;9.578;2023-04-24T09:06:58;7.40;;;6.90;;
14377;SDS011;7272;53.668;9.578;2023-04-24T09:10:00;7.40;;;6.87;;
14377;SDS011;7272;53.668;9.578;2023-04-24T09:13:02;8.93;;;8.25;;
14377;SDS011;7272;53.668;9.578;2023-04-24T09:16:04;8.07;;;7.43;;
14377;SDS011;7272;53.668;9.578;2023-04-24T09:19:05;7.83;;;7.23;;
14377;SDS011;7272;53.668;9.578;2023-04-24T09:22:06;6.90;;;6.40;;
14377;SDS011;7272;53.668;9.578;2023-04-24T09:25:09;6.30;;;5.80;;
14377;SDS011;7272;53.668;9.578;2023-04-24T09:28:12;6.93;;;6.43;;
14377;SDS011;7272;53.668;9.578;2023-04-24T09:31:18;6.50;;;6.10;;
14377;SDS011;7272;53.668;9.578;2023-04-24T09:34:22;7.23;;;6.63;;
14377;SDS011;7272;53.668;9.578;2023-04-24T09:37:28;6.83;;;6.33;;
14377;SDS011;7272;53.668;9.578;2023-04-24T09:40:29;6.78;;;6.28;;
14377;SDS011;7272;53.668;9.578;2023-04-24T09:43:31;6.30;;;5.88;;
14377;SDS011;7272;53.668;9.578;2023-04-24T09:46:33;6.40;;;5.90;;
14377;SDS011;7272;53.668;9.578;2023-04-24T09:49:35;5.30;;;5.00;;
14377;SDS011;7272;53.668;9.578;2023-04-24T09:52:39;6.33;;;5.83;;
14377;SDS011;7272;53.668;9.578;2023-04-24T09:55:44;5.77;;;5.37;;
14377;SDS011;7272;53.668;9.578;2023-04-24T09:58:46;5.67;;;5.27;;
14377;SDS011;7272;53.668;9.578;2023-04-24T10:01:48;5.30;;;5.00;;
14377;SDS011;7272;53.668;9.578;2023-04-24T10:04:54;5.40;;;5.00;;
14377;SDS011;7272;53.668;9.578;2023-04-24T10:07:56;6.90;;;6.30;;
14377;SDS011;7272;53.668;9.578;2023-04-24T10:10:58;7.30;;;6.70;;
14377;SDS011;7272;53.668;9.578;2023-04-24T10:14:00;6.20;;;5.70;;
14377;SDS011;7272;53.668;9.578;2023-04-24T10:17:02;5.97;;;5.47;;
14377;SDS011;7272;53.668;9.578;2023-04-24T10:20:05;6.57;;;6.00;;
14377;SDS011;7272;53.668;9.578;2023-04-24T10:23:07;6.33;;;5.83;;
14377;SDS011;7272;53.668;9.578;2023-04-24T10:26:08;6.33;;;5.90;;
14377;SDS011;7272;53.668;9.578;2023-04-24T10:29:10;7.17;;;6.53;;
14377;SDS011;7272;53.668;9.578;2023-04-24T10:32:13;7.37;;;6.60;;
14377;SDS011;7272;53.668;9.578;2023-04-24T10:35:15;7.17;;;6.57;;
14377;SDS011;7272;53.668;9.578;2023-04-24T10:38:18;7.07;;;6.57;;
14377;SDS011;7272;53.668;9.578;2023-04-24T10:41:25;6.50;;;6.00;;
14377;SDS011;7272;53.668;9.578;2023-04-24T10:44:27;6.37;;;5.87;;
14377;SDS011;7272;53.668;9.578;2023-04-24T10:47:40;7.68;;;7.07;;
14377;SDS011;7272;53.668;9.578;2023-04-24T10:50:43;6.63;;;6.13;;
14377;SDS011;7272;53.668;9.578;2023-04-24T10:53:44;8.47;;;7.80;;
14377;SDS011;7272;53.668;9.578;2023-04-24T10:56:46;8.50;;;7.90;;
14377;SDS011;7272;53.668;9.578;2023-04-24T10:59:47;9.13;;;8.33;;
14377;SDS011;7272;53.668;9.578;2023-04-24T11:02:52;9.70;;;9.00;;
14377;SDS011;7272;53.668;9.578;2023-04-24T11:05:57;8.90;;;8.20;;
14377;SDS011;7272;53.668;9.578;2023-04-24T11:09:03;11.07;;;10.27;;
14377;SDS011;7272;53.668;9.578;2023-04-24T11:12:06;10.50;;;9.67;;
14377;SDS011;7272;53.668;9.578;2023-04-24T11:15:10;12.07;;;11.03;;
14377;SDS011;7272;53.668;9.578;2023-04-24T11:18:15;12.80;;;11.85;;
14377;SDS011;7272;53.668;9.578;2023-04-24T11:21:16;12.10;;;10.90;;
14377;SDS011;7272;53.668;9.578;2023-04-24T11:24:23;10.67;;;9.77;;
14377;SDS011;7272;53.668;9.578;2023-04-24T11:27:29;11.77;;;10.87;;
14377;SDS011;7272;53.668;9.578;2023-04-24T11:30:33;11.50;;;10.50;;
14377;SDS011;7272;53.668;9.578;2023-04-24T11:33:34;11.17;;;10.23;;
14377;SDS011;7272;53.668;9.578;2023-04-24T11:36:36;9.93;;;9.23;;
14377;SDS011;7272;53.668;9.578;2023-04-24T11:39:37;10.80;;;9.80;;
14377;SDS011;7272;53.668;9.578;2023-04-24T11:42:39;11.88;;;10.88;;
14377;SDS011;7272;53.668;9.578;2023-04-24T11:45:47;11.23;;;10.30;;
14377;SDS011;7272;53.668;9.578;2023-04-24T11:48:49;9.47;;;8.77;;
14377;SDS011;7272;53.668;9.578;2023-04-24T11:51:50;9.57;;;8.67;;
14377;SDS011;7272;53.668;9.578;2023-04-24T11:54:55;8.63;;;7.83;;
14377;SDS011;7272;53.668;9.578;2023-04-24T11:57:58;9.10;;;8.40;;
14377;SDS011;7272;53.668;9.578;2023-04-24T12:01:00;9.33;;;8.53;;
14377;SDS011;7272;53.668;9.578;2023-04-24T12:04:02;9.30;;;8.60;;
14377;SDS011;7272;53.668;9.578;2023-04-24T12:07:03;8.57;;;7.97;;
14377;SDS011;7272;53.668;9.578;2023-04-24T12:10:05;8.57;;;7.93;;
14377;SDS011;7272;53.668;9.578;2023-04-24T12:13:09;8.68;;;8.02;;
14377;SDS011;7272;53.668;9.578;2023-04-24T12:16:10;8.50;;;7.87;;
14377;SDS011;7272;53.668;9.578;2023-04-24T12:19:12;9.07;;;8.38;;
14377;SDS011;7272;53.668;9.578;2023-04-24T12:22:20;8.57;;;7.97;;
14377;SDS011;7272;53.668;9.578;2023-04-24T12:25:22;9.10;;;8.30;;
14377;SDS011;7272;53.668;9.578;2023-04-24T12:28:24;7.53;;;7.03;;
14377;SDS011;7272;53.668;9.578;2023-04-24T12:31:34;7.57;;;6.97;;
14377;SDS011;7272;53.668;9.578;2023-04-24T12:34:36;6.30;;;5.80;;
14377;SDS011;7272;53.668;9.578;2023-04-24T12:37:38;6.80;;;6.20;;
14377;SDS011;7272;53.668;9.578;2023-04-24T12:40:39;6.60;;;6.20;;
14377;SDS011;7272;53.668;9.578;2023-04-24T12:43:51;7.35;;;6.75;;
14377;SDS011;7272;53.668;9.578;2023-04-24T12:46:53;6.95;;;6.45;;
14377;SDS011;7272;53.668;9.578;2023-04-24T12:49:55;6.30;;;5.80;;
14377;SDS011;7272;53.668;9.578;2023-04-24T12:52:56;6.30;;;5.80;;
14377;SDS011;7272;53.668;9.578;2023-04-24T12:55:57;7.40;;;6.70;;
14377;SDS011;7272;53.668;9.578;2023-04-24T12:58:58;6.57;;;6.07;;
14377;SDS011;7272;53.668;9.578;2023-04-24T13:02:00;7.00;;;6.50;;
14377;SDS011;7272;53.668;9.578;2023-04-24T13:05:02;6.93;;;6.43;;
14377;SDS011;7272;53.668;9.578;2023-04-24T13:08:05;7.13;;;6.63;;
14377;SDS011;7272;53.668;9.578;2023-04-24T13:11:06;7.73;;;7.23;;
14377;SDS011;7272;53.668;9.578;2023-04-24T13:14:08;7.70;;;7.20;;
14377;SDS011;7272;53.668;9.578;2023-04-24T13:17:09;7.20;;;6.70;;
14377;SDS011;7272;53.668;9.578;2023-04-24T13:20:12;7.47;;;6.93;;
14377;SDS011;7272;53.668;9.578;2023-04-24T13:23:14;7.17;;;6.67;;
14377;SDS011;7272;53.668;9.578;2023-04-24T13:26:15;6.40;;;6.00;;
14377;SDS011;7272;53.668;9.578;2023-04-24T13:29:16;6.90;;;6.40;;
14377;SDS011;7272;53.668;9.578;2023-04-24T13:32:18;7.23;;;6.73;;
14377;SDS011;7272;53.668;9.578;2023-04-24T13:35:20;6.43;;;6.03;;
14377;SDS011;7272;53.668;9.578;2023-04-24T13:38:21;6.63;;;6.20;;
14377;SDS011;7272;53.668;9.578;2023-04-24T13:41:23;7.10;;;6.60;;
14377;SDS011;7272;53.668;9.578;2023-04-24T13:44:24;6.40;;;6.00;;
14377;SDS011;7272;53.668;9.578;2023-04-24T13:47:26;5.80;;;5.47;;
14377;SDS011;7272;53.668;9.578;2023-04-24T13:50:27;5.77;;;5.40;;
14377;SDS011;7272;53.668;9.578;2023-04-24T13:53:29;5.90;;;5.50;;
14377;SDS011;7272;53.668;9.578;2023-04-24T13:56:30;6.33;;;5.93;;
14377;SDS011;7272;53.668;9.578;2023-04-24T13:59:31;6.33;;;5.93;;
14377;SDS011;7272;53.668;9.578;2023-04-24T14:02:32;6.60;;;6.10;;
14377;SDS011;7272;53.668;9.578;2023-04-24T14:05:34;6.40;;;6.00;;
14377;SDS011;7272;53.668;9.578;2023-04-24T14:08:36;6.40;;;6.00;;
14377;SDS011;7272;53.668;9.578;2023-04-24T14:11:37;7.03;;;6.53;;
14377;SDS011;7272;53.668;9.578;2023-04-24T14:14:38;6.80;;;6.30;;
14377;SDS011;7272;53.668;9.578;2023-04-24T14:17:39;6.43;;;6.03;;
14377;SDS011;7272;53.668;9.578;2023-04-24T14:20:41;6.33;;;5.83;;
14377;SDS011;7272;53.668;9.578;2023-04-24T14:23:43;5.70;;;5.30;;
14377;SDS011;7272;53.668;9.578;2023-04-24T14:26:44;4.80;;;4.50;;
14377;SDS011;7272;53.668;9.578;2023-04-24T14:29:45;5.10;;;4.70;;
14377;SDS011;7272;53.668;9.578;2023-04-24T14:32:46;4.73;;;4.37;;
14377;SDS011;7272;53.668;9.578;2023-04-24T14:35:49;5.10;;;4.80;;
14377;SDS011;7272;53.668;9.578;2023-04-24T14:38:50;4.47;;;4.20;;
14377;SDS011;7272;53.668;9.578;2023-04-24T14:41:51;5.53;;;5.22;;
14377;SDS011;7272;53.668;9.578;2023-04-24T14:44:52;7.13;;;6.73;;
14377;SDS011;7272;53.668;9.578;2023-04-24T14:47:54;4.40;;;4.03;;
14377;SDS011;7272;53.668;9.578;2023-04-24T14:50:57;4.10;;;3.90;;
14377;SDS011;7272;53.668;9.578;2023-04-24T14:53:58;4.50;;;4.20;;
14377;SDS011;7272;53.668;9.578;2023-04-24T14:56:59;4.13;;;3.83;;
14377;SDS011;7272;53.668;9.578;2023-04-24T15:00:01;4.03;;;3.73;;
14377;SDS011;7272;53.668;9.578;2023-04-24T15:03:04;4.30;;;3.90;;
14377;SDS011;7272;53.668;9.578;2023-04-24T15:06:06;4.50;;;4.10;;
14377;SDS011;7272;53.668;9.578;2023-04-24T15:09:07;5.20;;;4.80;;
14377;SDS011;7272;53.668;9.578;2023-04-24T15:12:08;4.90;;;4.50;;
14377;SDS011;7272;53.668;9.578;2023-04-24T15:15:12;5.43;;;5.03;;
14377;SDS011;7272;53.668;9.578;2023-04-24T15:18:13;5.97;;;5.47;;
14377;SDS011;7272;53.668;9.578;2023-04-24T15:21:15;6.83;;;6.10;;
14377;SDS011;7272;53.668;9.578;2023-04-24T15:24:16;6.10;;;5.70;;
14377;SDS011;7272;53.668;9.578;2023-04-24T15:27:17;6.80;;;6.20;;
14377;SDS011;7272;53.668;9.578;2023-04-24T15:30:19;8.00;;;7.30;;
14377;SDS011;7272;53.668;9.578;2023-04-24T15:33:20;8.83;;;8.07;;
14377;SDS011;7272;53.668;9.578;2023-04-24T15:36:22;10.00;;;9.00;;
14377;SDS011;7272;53.668;9.578;2023-04-24T15:39:23;10.83;;;9.47;;
14377;SDS011;7272;53.668;9.578;2023-04-24T15:42:25;13.20;;;12.02;;
14377;SDS011;7272;53.668;9.578;2023-04-24T15:45:26;12.60;;;11.40;;
14377;SDS011;7272;53.668;9.578;2023-04-24T15:48:27;10.83;;;9.90;;
14377;SDS011;7272;53.668;9.578;2023-04-24T15:51:30;11.57;;;10.33;;
14377;SDS011;7272;53.668;9.578;2023-04-24T15:54:31;10.90;;;9.80;;
14377;SDS011;7272;53.668;9.578;2023-04-24T15:57:32;11.80;;;10.60;;
14377;SDS011;7272;53.668;9.578;2023-04-24T16:00:33;10.33;;;9.33;;
14377;SDS011;7272;53.668;9.578;2023-04-24T16:03:36;8.80;;;8.00;;
14377;SDS011;7272;53.668;9.578;2023-04-24T16:06:38;7.97;;;7.27;;
14377;SDS011;7272;53.668;9.578;2023-04-24T16:09:39;8.50;;;7.70;;
14377;SDS011;7272;53.668;9.578;2023-04-24T16:12:40;8.77;;;6.93;;
14377;SDS011;7272;53.668;9.578;2023-04-24T16:15:42;7.20;;;6.60;;
14377;SDS011;7272;53.668;9.578;2023-04-24T16:18:43;8.00;;;7.30;;
14377;SDS011;7272;53.668;9.578;2023-04-24T16:21:45;7.00;;;6.40;;
14377;SDS011;7272;53.668;9.578;2023-04-24T16:24:46;8.80;;;8.00;;
14377;SDS011;7272;53.668;9.578;2023-04-24T16:27:48;8.40;;;6.60;;
14377;SDS011;7272;53.668;9.578;2023-04-24T16:30:50;6.93;;;6.33;;
14377;SDS011;7272;53.668;9.578;2023-04-24T16:33:51;7.37;;;6.30;;
14377;SDS011;7272;53.668;9.578;2023-04-24T16:36:53;7.17;;;6.47;;
14377;SDS011;7272;53.668;9.578;2023-04-24T16:39:55;5.87;;;5.40;;
14377;SDS011;7272;53.668;9.578;2023-04-24T16:42:56;10.00;;;6.50;;
14377;SDS011;7272;53.668;9.578;2023-04-24T16:45:57;7.43;;;5.53;;
14377;SDS011;7272;53.668;9.578;2023-04-24T16:48:59;7.72;;;6.75;;
14377;SDS011;7272;53.668;9.578;2023-04-24T16:52:01;6.70;;;5.60;;
14377;SDS011;7272;53.668;9.578;2023-04-24T16:55:03;6.27;;;5.67;;
14377;SDS011;7272;53.668;9.578;2023-04-24T16:58:05;6.40;;;5.80;;
14377;SDS011;7272;53.668;9.578;2023-04-24T17:01:06;6.23;;;5.63;;
14377;SDS011;7272;53.668;9.578;2023-04-24T17:04:07;6.40;;;5.80;;
14377;SDS011;7272;53.668;9.578;2023-04-24T17:07:09;5.50;;;5.07;;
14377;SDS011;7272;53.668;9.578;2023-04-24T17:10:10;5.73;;;5.10;;
14377;SDS011;7272;53.668;9.578;2023-04-24T17:13:11;5.30;;;4.80;;
14377;SDS011;7272;53.668;9.578;2023-04-24T17:16:14;5.97;;;5.47;;
14377;SDS011;7272;53.668;9.578;2023-04-24T17:19:15;5.47;;;4.90;;
14377;SDS011;7272;53.668;9.578;2023-04-24T17:22:17;6.63;;;6.03;;
14377;SDS011;7272;53.668;9.578;2023-04-24T17:25:18;7.35;;;5.90;;
14377;SDS011;7272;53.668;9.578;2023-04-24T17:28:22;5.83;;;5.33;;
14377;SDS011;7272;53.668;9.578;2023-04-24T17:31:25;6.50;;;5.37;;
14377;SDS011;7272;53.668;9.578;2023-04-24T17:34:26;8.93;;;5.10;;
14377;SDS011;7272;53.668;9.578;2023-04-24T17:37:28;5.70;;;4.57;;
14377;SDS011;7272;53.668;9.578;2023-04-24T17:40:29;8.10;;;5.33;;
14377;SDS011;7272;53.668;9.578;2023-04-24T17:43:30;8.70;;;5.17;;
14377;SDS011;7272;53.668;9.578;2023-04-24T17:46:32;7.97;;;5.20;;
14377;SDS011;7272;53.668;9.578;2023-04-24T17:49:33;8.23;;;5.90;;
14377;SDS011;7272;53.668;9.578;2023-04-24T17:52:37;7.80;;;5.80;;
14377;SDS011;7272;53.668;9.578;2023-04-24T17:55:38;5.43;;;4.93;;
14377;SDS011;7272;53.668;9.578;2023-04-24T17:58:40;5.30;;;4.80;;
14377;SDS011;7272;53.668;9.578;2023-04-24T18:01:41;6.03;;;4.80;;
14377;SDS011;7272;53.668;9.578;2023-04-24T18:04:42;7.45;;;5.47;;
14377;SDS011;7272;53.668;9.578;2023-04-24T18:07:44;5.70;;;4.10;;
14377;SDS011;7272;53.668;9.578;2023-04-24T18:10:45;5.40;;;3.80;;
14377;SDS011;7272;53.668;9.578;2023-04-24T18:13:46;4.50;;;3.33;;
14377;SDS011;7272;53.668;9.578;2023-04-24T18:16:48;4.47;;;3.60;;
14377;SDS011;7272;53.668;9.578;2023-04-24T18:19:50;5.10;;;3.43;;
14377;SDS011;7272;53.668;9.578;2023-04-24T18:22:52;5.33;;;3.40;;
14377;SDS011;7272;53.668;9.578;2023-04-24T18:25:53;3.53;;;2.93;;
14377;SDS011;7272;53.668;9.578;2023-04-24T18:28:55;5.60;;;3.27;;
14377;SDS011;7272;53.668;9.578;2023-04-24T18:31:56;3.20;;;2.67;;
14377;SDS011;7272;53.668;9.578;2023-04-24T18:34:57;4.30;;;2.80;;